Terminal Aerodrome Forecast
Issued by NWS

Home | Current Version | Previous Version | Text Only | Print | Product List | Glossary On
Versions: 1 2 3 4 5 6 7 8 9 10 11 12 13 14 15 16 17 18
000
FTUS43 KICT 022332
TAFRSL
TAF
KRSL 022332Z 0300/0324 17018G26KT P6SM SCT020 OVC150
     FM030500 19020G28KT 5SM BR OVC014
     FM031200 24020G28KT P6SM SCT020
     FM031600 35022G32KT P6SM SCT025
      TEMPO 0316/0320 BKN025=

USA.gov is the U.S. government's official web portal to all federal, state and local government web resources and services.